Time;durP1;ratioP1;P1;durP2;ratioP2;P2;SDS_P1;SDS_P2;PMS_P1;PMS_P2;Temp;Humidity;BMP_temperature;BMP_pressure;BME280_temperature;BME280_humidity;BME280_pressure;Samples;Min_cycle;Max_cycle;Signal;HPM_P1;HPM_P2
2021/07/18 00:00:35;;;;;;;21.35;17.02;;;19.20;1.00;;;;;;5035221;28;20062;-88
2021/07/18 00:03:01;;;;;;;21.63;16.98;;;19.20;1.00;;;;;;5032928;28;20026;-88
2021/07/18 00:05:26;;;;;;;20.40;16.85;;;19.20;1.00;;;;;;5036274;28;20079;-88
2021/07/18 00:07:52;;;;;;;19.27;16.60;;;19.20;1.00;;;;;;5036157;28;20125;-88
2021/07/18 00:10:18;;;;;;;20.52;16.23;;;19.10;1.00;;;;;;5035179;28;20124;-87
2021/07/18 00:12:44;;;;;;;22.50;16.55;;;19.10;1.00;;;;;;5035277;28;20020;-88
2021/07/18 00:15:11;;;;;;;18.08;15.88;;;19.10;1.00;;;;;;5031949;28;20049;-88
2021/07/18 00:17:37;;;;;;;20.00;17.13;;;19.10;1.00;;;;;;5045534;28;20429;-88
2021/07/18 00:20:12;;;;;;;20.15;16.48;;;19.10;1.00;;;;;;5035498;28;20021;-87
2021/07/18 00:22:38;;;;;;;19.23;16.15;;;19.10;1.00;;;;;;5039397;28;20041;-88
2021/07/18 00:25:06;;;;;;;18.58;16.50;;;19.10;1.00;;;;;;5043833;28;20091;-88
2021/07/18 00:27:32;;;;;;;22.77;16.60;;;19.00;1.00;;;;;;5032997;28;20024;-88
2021/07/18 00:30:05;;;;;;;21.10;16.70;;;19.00;1.00;;;;;;5032433;28;20410;-87
2021/07/18 00:32:31;;;;;;;19.77;16.75;;;19.00;1.00;;;;;;5038184;28;20038;-89
2021/07/18 00:34:57;;;;;;;20.95;17.38;;;19.00;1.00;;;;;;5034868;28;20033;-88
2021/07/18 00:37:23;;;;;;;19.27;16.83;;;18.90;1.00;;;;;;5036272;28;20035;-88
2021/07/18 00:39:48;;;;;;;23.80;17.00;;;18.90;1.00;;;;;;5036189;28;20021;-88
2021/07/18 00:42:18;;;;;;;20.10;16.80;;;18.90;1.00;;;;;;5032023;28;20403;-88
2021/07/18 00:44:50;;;;;;;21.85;16.70;;;18.90;1.00;;;;;;5036199;28;20025;-87
2021/07/18 00:47:16;;;;;;;19.98;16.38;;;18.80;1.00;;;;;;5037807;28;20025;-89
2021/07/18 00:49:42;;;;;;;20.70;16.90;;;18.80;1.00;;;;;;5034499;28;20029;-88
2021/07/18 00:52:09;;;;;;;22.50;17.83;;;18.80;1.00;;;;;;5034244;28;20031;-88
2021/07/18 00:54:36;;;;;;;26.30;18.35;;;18.80;1.00;;;;;;5034909;28;20052;-86
2021/07/18 00:57:02;;;;;;;19.38;16.83;;;18.80;1.00;;;;;;5031638;28;20538;-87
2021/07/18 00:59:28;;;;;;;19.27;15.88;;;18.80;1.00;;;;;;5037394;28;20021;-87
2021/07/18 01:01:54;;;;;;;21.50;17.58;;;18.80;1.00;;;;;;5036113;28;20033;-88
2021/07/18 01:04:20;;;;;;;22.05;17.40;;;18.80;1.00;;;;;;5035457;28;20037;-87
2021/07/18 01:06:48;;;;;;;20.45;16.77;;;18.80;1.00;;;;;;5035767;28;20089;-87
2021/07/18 01:09:14;;;;;;;20.90;16.58;;;18.90;1.00;;;;;;5030675;28;20088;-88
2021/07/18 01:11:39;;;;;;;18.55;16.30;;;18.90;1.00;;;;;;5035367;28;20788;-87
2021/07/18 01:14:05;;;;;;;22.83;17.17;;;19.00;1.00;;;;;;5035322;28;20049;-88
2021/07/18 01:16:31;;;;;;;21.58;17.88;;;19.00;1.00;;;;;;5035642;28;20059;-88
2021/07/18 01:18:57;;;;;;;21.38;17.48;;;19.10;1.00;;;;;;5035882;28;20103;-88
2021/07/18 01:21:24;;;;;;;20.33;16.45;;;19.20;1.00;;;;;;5032874;28;20056;-87
2021/07/18 01:23:50;;;;;;;21.27;16.63;;;19.20;1.00;;;;;;5034101;28;20588;-87
2021/07/18 01:26:16;;;;;;;18.73;16.80;;;19.30;1.00;;;;;;5033116;28;20068;-87
2021/07/18 01:28:42;;;;;;;21.98;17.15;;;19.30;1.00;;;;;;5033946;28;20034;-88
2021/07/18 01:31:08;;;;;;;19.23;17.10;;;19.20;1.00;;;;;;5034895;28;20402;-87
2021/07/18 01:33:34;;;;;;;19.60;16.77;;;19.20;1.00;;;;;;5032808;28;20036;-87
2021/07/18 01:36:00;;;;;;;22.20;17.73;;;19.10;1.00;;;;;;5030622;28;20034;-87
2021/07/18 01:38:25;;;;;;;22.00;17.70;;;19.20;1.00;;;;;;5046549;28;20120;-88
2021/07/18 01:40:51;;;;;;;20.52;16.92;;;19.10;1.00;;;;;;5034839;28;20048;-88
2021/07/18 01:43:17;;;;;;;20.45;17.13;;;19.10;1.00;;;;;;5034299;28;20540;-88
2021/07/18 01:45:43;;;;;;;20.45;16.60;;;19.10;1.00;;;;;;5035702;28;20370;-88
2021/07/18 01:48:09;;;;;;;21.92;17.73;;;19.10;1.00;;;;;;5029197;28;20079;-88
2021/07/18 01:50:38;;;;;;;19.45;17.40;;;19.10;1.00;;;;;;5043577;28;20084;-88
2021/07/18 01:53:05;;;;;;;19.45;16.35;;;19.10;1.00;;;;;;5030654;28;20031;-87
2021/07/18 01:55:31;;;;;;;20.92;16.98;;;19.20;1.00;;;;;;5034272;28;20029;-87
2021/07/18 01:57:57;;;;;;;21.60;17.60;;;19.20;1.00;;;;;;5035670;28;20047;-88
2021/07/18 02:00:22;;;;;;;21.55;17.95;;;19.20;1.00;;;;;;5031783;28;20478;-87
2021/07/18 02:02:50;;;;;;;19.70;17.45;;;19.20;1.00;;;;;;5033994;28;20057;-87
2021/07/18 02:05:18;;;;;;;22.20;17.65;;;19.20;1.00;;;;;;5036081;28;20040;-88
2021/07/18 02:07:46;;;;;;;19.88;16.45;;;19.10;1.00;;;;;;5037904;28;20029;-87
2021/07/18 02:10:13;;;;;;;21.65;17.83;;;19.20;1.00;;;;;;5041336;28;20018;-88
2021/07/18 02:12:39;;;;;;;21.17;17.63;;;19.30;1.00;;;;;;5033949;28;20029;-87
2021/07/18 02:15:08;;;;;;;20.13;17.85;;;19.30;1.00;;;;;;5029302;28;20064;-87
2021/07/18 02:17:35;;;;;;;23.27;17.35;;;19.20;1.00;;;;;;5036618;28;20053;-88
2021/07/18 02:20:01;;;;;;;20.70;18.10;;;19.30;1.00;;;;;;5036371;28;20052;-87
2021/07/18 02:22:53;;;;;;;24.45;17.58;;;19.30;1.00;;;;;;5040344;28;20482;-87
2021/07/18 02:25:22;;;;;;;21.15;17.95;;;19.30;1.00;;;;;;5040321;28;20053;-87
2021/07/18 02:27:48;;;;;;;19.58;17.50;;;19.20;1.00;;;;;;5038034;28;20059;-87
2021/07/18 02:30:19;;;;;;;21.33;18.35;;;19.10;1.00;;;;;;5034146;28;20077;-87
2021/07/18 02:32:45;;;;;;;20.48;17.80;;;19.00;1.00;;;;;;5038408;28;20022;-88
2021/07/18 02:35:14;;;;;;;22.55;18.10;;;18.90;1.00;;;;;;5039067;28;20041;-87
2021/07/18 02:37:41;;;;;;;23.23;18.13;;;18.80;1.00;;;;;;5037220;28;20551;-88
2021/07/18 02:40:08;;;;;;;22.85;17.60;;;18.80;1.00;;;;;;5036371;28;20079;-87
2021/07/18 02:42:35;;;;;;;19.77;17.60;;;18.70;1.00;;;;;;5037029;28;20070;-87
2021/07/18 02:45:01;;;;;;;22.45;18.23;;;18.60;1.00;;;;;;5034295;28;20073;-88
2021/07/18 02:47:26;;;;;;;24.00;18.52;;;18.80;1.00;;;;;;5038930;28;20021;-87
2021/07/18 02:49:52;;;;;;;21.92;18.08;;;18.60;1.00;;;;;;5036263;28;20087;-87
2021/07/18 02:52:18;;;;;;;21.98;18.25;;;18.60;1.00;;;;;;5037035;28;20393;-87
2021/07/18 02:54:44;;;;;;;24.65;18.95;;;18.60;1.00;;;;;;5037488;28;20037;-88
2021/07/18 02:57:09;;;;;;;23.23;18.77;;;18.70;1.00;;;;;;5031465;28;20029;-87
2021/07/18 02:59:35;;;;;;;24.05;18.13;;;18.60;1.00;;;;;;5040316;28;20477;-87
2021/07/18 03:02:02;;;;;;;21.15;18.83;;;18.60;1.00;;;;;;5037808;28;20044;-87
2021/07/18 03:04:28;;;;;;;20.08;17.95;;;18.60;1.00;;;;;;5037820;28;20103;-87
2021/07/18 03:06:53;;;;;;;20.85;18.65;;;18.80;1.00;;;;;;5036954;28;20025;-88
2021/07/18 03:09:23;;;;;;;21.70;18.80;;;18.90;1.00;;;;;;5032791;28;20030;-88
2021/07/18 03:11:52;;;;;;;24.45;18.42;;;18.90;1.00;;;;;;5036629;28;20029;-87
2021/07/18 03:14:19;;;;;;;22.10;18.27;;;19.00;1.00;;;;;;5038994;28;20056;-88
2021/07/18 03:16:47;;;;;;;21.98;19.05;;;19.00;1.00;;;;;;5037391;28;20026;-87
2021/07/18 03:19:13;;;;;;;19.77;17.70;;;19.00;1.00;;;;;;5038059;28;20033;-87
2021/07/18 03:21:39;;;;;;;23.00;18.33;;;19.00;1.00;;;;;;5033606;28;20112;-88
2021/07/18 03:24:05;;;;;;;21.27;18.58;;;19.00;1.00;;;;;;5048827;28;20108;-87
2021/07/18 03:26:31;;;;;;;22.98;18.42;;;19.00;1.00;;;;;;5039407;28;20024;-88
2021/07/18 03:28:57;;;;;;;24.08;17.85;;;19.00;1.00;;;;;;5035673;28;20033;-87
2021/07/18 03:31:23;;;;;;;20.25;18.00;;;19.00;1.00;;;;;;5036805;28;20402;-87
2021/07/18 03:33:49;;;;;;;22.02;18.92;;;18.90;1.00;;;;;;5037233;28;20448;-87
2021/07/18 03:36:14;;;;;;;21.00;17.50;;;19.00;1.00;;;;;;5032831;28;20056;-87
2021/07/18 03:38:40;;;;;;;20.88;17.75;;;19.00;1.00;;;;;;5037887;28;20021;-87
2021/07/18 03:41:06;;;;;;;20.83;18.60;;;19.00;1.00;;;;;;5037203;28;20425;-86
2021/07/18 03:43:32;;;;;;;21.40;19.10;;;18.90;1.00;;;;;;5043820;28;20090;-88
2021/07/18 03:45:57;;;;;;;23.60;19.17;;;18.90;1.00;;;;;;5046713;28;20135;-87
2021/07/18 03:48:23;;;;;;;21.90;18.30;;;19.00;1.00;;;;;;5034060;28;20040;-88
2021/07/18 03:50:49;;;;;;;21.92;18.75;;;19.00;1.00;;;;;;5034895;28;20029;-87
2021/07/18 03:53:16;;;;;;;21.15;17.83;;;19.00;1.00;;;;;;5038400;28;20116;-88
2021/07/18 03:55:42;;;;;;;23.58;19.50;;;19.10;1.00;;;;;;5035425;28;20377;-87
2021/07/18 03:58:08;;;;;;;23.27;18.90;;;19.10;1.00;;;;;;5035854;28;20444;-88
2021/07/18 04:00:34;;;;;;;22.52;18.30;;;19.00;1.00;;;;;;5034032;28;20020;-88
2021/07/18 04:02:59;;;;;;;21.13;18.48;;;19.00;1.00;;;;;;5033230;28;20041;-87
2021/07/18 04:05:25;;;;;;;20.13;17.88;;;19.10;1.00;;;;;;5035856;28;20580;-87
2021/07/18 04:07:51;;;;;;;21.38;19.10;;;19.10;1.00;;;;;;5036588;28;20363;-88
2021/07/18 04:10:16;;;;;;;22.65;18.55;;;19.10;1.00;;;;;;5034823;28;20109;-87
2021/07/18 04:12:42;;;;;;;22.83;18.42;;;19.10;1.00;;;;;;5036031;28;20071;-88
2021/07/18 04:15:09;;;;;;;21.27;17.45;;;19.10;1.00;;;;;;5016269;28;20018;-87
2021/07/18 04:17:35;;;;;;;21.77;17.98;;;19.00;1.00;;;;;;5038429;28;20116;-87
2021/07/18 04:20:01;;;;;;;21.77;17.67;;;19.10;1.00;;;;;;5034390;28;20390;-87
2021/07/18 04:22:27;;;;;;;21.52;18.65;;;19.10;1.00;;;;;;5034789;28;20044;-87
2021/07/18 04:24:52;;;;;;;20.60;18.20;;;19.00;1.00;;;;;;5036954;28;20040;-87
2021/07/18 04:27:18;;;;;;;20.15;17.55;;;19.00;1.00;;;;;;5032773;28;20029;-87
2021/07/18 04:29:44;;;;;;;21.02;17.85;;;19.00;1.00;;;;;;5036639;28;20051;-87
2021/07/18 04:32:09;;;;;;;20.40;18.23;;;18.90;1.00;;;;;;5036752;28;20517;-87
2021/07/18 04:34:35;;;;;;;20.35;17.70;;;18.90;1.00;;;;;;5034492;28;20036;-87
2021/07/18 04:37:01;;;;;;;22.23;17.05;;;19.00;1.00;;;;;;5030651;28;20040;-87
2021/07/18 04:39:27;;;;;;;22.52;17.90;;;19.00;1.00;;;;;;5031710;28;20029;-88
2021/07/18 04:41:53;;;;;;;24.85;18.73;;;19.00;1.00;;;;;;5033874;28;20020;-87
2021/07/18 04:44:18;;;;;;;19.35;17.40;;;19.00;1.00;;;;;;5035192;28;20116;-87
2021/07/18 04:46:44;;;;;;;21.77;17.73;;;19.10;1.00;;;;;;5034382;28;20037;-87
2021/07/18 04:49:09;;;;;;;23.67;18.63;;;19.20;1.00;;;;;;5034405;28;20029;-87
2021/07/18 04:51:36;;;;;;;20.30;17.70;;;19.10;1.00;;;;;;5034798;28;20047;-88
2021/07/18 04:54:01;;;;;;;22.77;18.50;;;19.20;1.00;;;;;;5032303;28;20375;-87
2021/07/18 04:56:27;;;;;;;23.33;18.20;;;19.30;1.00;;;;;;5034742;28;20036;-87
2021/07/18 04:58:52;;;;;;;22.20;17.80;;;19.30;1.00;;;;;;5035709;28;20453;-88
2021/07/18 05:01:18;;;;;;;21.40;17.65;;;19.40;1.00;;;;;;5035090;28;20095;-88
2021/07/18 05:03:44;;;;;;;20.63;17.77;;;19.40;1.00;;;;;;5031175;28;20048;-88
2021/07/18 05:06:09;;;;;;;20.30;17.10;;;19.50;1.00;;;;;;5046375;28;20045;-87
2021/07/18 05:08:35;;;;;;;20.38;17.65;;;19.60;1.00;;;;;;5037546;28;20022;-87
2021/07/18 05:11:02;;;;;;;20.23;17.52;;;19.60;1.00;;;;;;5034939;28;20033;-88
2021/07/18 05:13:28;;;;;;;22.67;18.48;;;19.70;1.00;;;;;;5035189;28;20112;-87
2021/07/18 05:15:53;;;;;;;20.80;17.35;;;19.80;1.00;;;;;;5034963;28;20112;-88
2021/07/18 05:18:19;;;;;;;26.48;17.00;;;19.70;1.00;;;;;;5030105;28;20025;-88
2021/07/18 05:20:45;;;;;;;20.20;17.60;;;19.70;1.00;;;;;;5047801;28;20033;-87
2021/07/18 05:23:11;;;;;;;21.13;16.77;;;19.50;1.00;;;;;;5034399;28;20029;-88
2021/07/18 05:25:38;;;;;;;21.27;16.50;;;19.60;1.00;;;;;;5034729;28;20037;-87
2021/07/18 05:28:06;;;;;;;19.05;16.73;;;19.60;1.00;;;;;;5033253;28;20048;-87
2021/07/18 05:30:31;;;;;;;19.75;17.00;;;19.60;1.00;;;;;;5033237;28;20860;-88
2021/07/18 05:32:57;;;;;;;21.58;18.10;;;19.50;1.00;;;;;;5031762;28;20022;-88
2021/07/18 05:35:23;;;;;;;23.38;17.88;;;19.60;1.00;;;;;;5044579;28;20039;-85
2021/07/18 05:37:50;;;;;;;21.35;17.13;;;19.60;1.00;;;;;;5045598;28;20078;-86
2021/07/18 05:40:16;;;;;;;21.05;18.40;;;19.70;1.00;;;;;;5041584;28;20076;-85
2021/07/18 05:42:42;;;;;;;20.17;16.63;;;19.90;1.00;;;;;;5034049;28;20017;-86
2021/07/18 05:45:09;;;;;;;21.70;17.10;;;19.70;1.00;;;;;;5028720;28;20050;-86
2021/07/18 05:47:36;;;;;;;20.23;17.63;;;19.80;1.00;;;;;;5034854;28;20528;-85
2021/07/18 05:50:03;;;;;;;19.30;16.52;;;19.90;1.00;;;;;;5040244;28;20060;-85
2021/07/18 05:52:29;;;;;;;20.48;17.67;;;19.90;1.00;;;;;;5039288;28;20049;-86
2021/07/18 05:54:55;;;;;;;22.20;18.00;;;20.00;1.00;;;;;;5032867;28;20060;-84
2021/07/18 05:57:22;;;;;;;19.17;16.63;;;20.10;1.00;;;;;;5030834;28;20060;-84
2021/07/18 05:59:47;;;;;;;21.08;18.00;;;20.00;1.00;;;;;;5047434;28;20060;-84
2021/07/18 06:02:15;;;;;;;20.02;17.30;;;20.00;1.00;;;;;;5034554;28;20072;-83
2021/07/18 06:04:41;;;;;;;19.55;16.95;;;20.00;1.00;;;;;;5032180;28;20045;-84
2021/07/18 06:07:07;;;;;;;21.30;17.52;;;19.70;1.00;;;;;;5034046;28;20052;-84
2021/07/18 06:09:33;;;;;;;19.33;17.13;;;19.70;1.00;;;;;;5032318;28;20041;-84
2021/07/18 06:11:58;;;;;;;22.73;17.50;;;19.90;1.00;;;;;;5029204;28;20029;-84
2021/07/18 06:14:24;;;;;;;22.70;17.17;;;20.00;1.00;;;;;;5034558;28;20033;-83
2021/07/18 06:16:49;;;;;;;20.02;17.65;;;20.10;1.00;;;;;;5033586;28;20026;-83
2021/07/18 06:19:15;;;;;;;20.30;16.27;;;20.10;1.00;;;;;;5033173;28;20095;-88
2021/07/18 06:21:41;;;;;;;20.50;17.42;;;20.10;1.00;;;;;;5034822;28;20025;-86
2021/07/18 06:24:06;;;;;;;20.67;17.15;;;20.10;1.00;;;;;;5029963;28;20025;-86
2021/07/18 06:26:32;;;;;;;23.02;16.70;;;20.10;1.00;;;;;;5035925;28;20135;-86
2021/07/18 06:29:00;;;;;;;21.35;16.25;;;20.30;1.00;;;;;;5034353;28;20481;-86
2021/07/18 06:31:26;;;;;;;19.65;17.52;;;20.30;1.00;;;;;;5033027;28;20057;-87
2021/07/18 06:33:52;;;;;;;19.13;16.55;;;20.50;1.00;;;;;;5029426;28;20021;-85
2021/07/18 06:36:18;;;;;;;21.17;16.45;;;20.50;1.00;;;;;;5044581;28;20452;-87
2021/07/18 06:38:44;;;;;;;18.65;16.05;;;20.40;1.00;;;;;;5033363;28;20026;-86
2021/07/18 06:41:10;;;;;;;19.98;17.10;;;20.60;1.00;;;;;;5033332;28;20087;-87
2021/07/18 06:43:35;;;;;;;19.08;17.10;;;20.50;1.00;;;;;;5033480;28;20029;-85
2021/07/18 06:46:01;;;;;;;20.02;17.05;;;20.70;1.00;;;;;;5032881;28;20031;-87
2021/07/18 06:48:26;;;;;;;19.50;16.77;;;20.50;1.00;;;;;;5031056;28;20017;-86
2021/07/18 06:50:52;;;;;;;23.33;17.10;;;20.50;1.00;;;;;;5032391;28;20034;-86
2021/07/18 06:53:18;;;;;;;18.83;16.58;;;20.60;1.00;;;;;;5031012;28;20029;-86
2021/07/18 06:55:44;;;;;;;19.15;16.08;;;20.70;1.00;;;;;;5032431;28;20125;-87
2021/07/18 06:58:09;;;;;;;21.02;16.85;;;20.50;1.00;;;;;;5033506;28;20049;-87
2021/07/18 07:00:35;;;;;;;19.63;16.50;;;20.60;1.00;;;;;;5031861;28;20485;-86
2021/07/18 07:03:01;;;;;;;18.83;16.42;;;20.50;1.00;;;;;;5030581;28;20149;-86
2021/07/18 07:05:26;;;;;;;20.30;17.27;;;20.50;1.00;;;;;;5036243;28;20029;-86
2021/07/18 07:07:52;;;;;;;21.55;16.77;;;20.20;1.00;;;;;;5036447;28;20030;-86
2021/07/18 07:10:19;;;;;;;21.15;17.30;;;20.20;1.00;;;;;;5036910;28;20119;-86
2021/07/18 07:12:46;;;;;;;19.30;16.98;;;20.20;1.00;;;;;;5037716;28;20435;-87
2021/07/18 07:15:13;;;;;;;21.00;17.60;;;20.40;1.00;;;;;;5032632;28;20033;-86
2021/07/18 07:17:42;;;;;;;19.45;16.35;;;20.40;1.00;;;;;;5053059;28;20029;-86
2021/07/18 07:20:09;;;;;;;21.33;17.25;;;20.60;1.00;;;;;;5037088;28;20035;-86
2021/07/18 07:22:35;;;;;;;19.58;17.48;;;20.80;1.00;;;;;;5034623;28;20390;-86
2021/07/18 07:25:13;;;;;;;18.65;16.52;;;20.80;1.00;;;;;;5039200;28;20440;-87
2021/07/18 07:27:39;;;;;;;18.70;16.60;;;21.10;1.00;;;;;;5048028;28;20135;-86
2021/07/18 07:30:07;;;;;;;18.88;16.98;;;21.20;1.00;;;;;;5032399;28;20037;-87
2021/07/18 07:32:33;;;;;;;20.08;17.98;;;21.30;1.00;;;;;;5049493;28;20037;-87
2021/07/18 07:34:59;;;;;;;21.15;16.75;;;21.50;1.00;;;;;;5037675;28;20030;-86
2021/07/18 07:37:25;;;;;;;19.60;15.93;;;21.90;1.00;;;;;;5036077;28;20030;-86
2021/07/18 07:39:52;;;;;;;19.55;16.95;;;22.00;1.00;;;;;;5035376;28;20033;-86
2021/07/18 07:42:19;;;;;;;18.20;15.93;;;22.20;1.00;;;;;;5033481;28;20101;-86
2021/07/18 07:44:45;;;;;;;18.67;16.73;;;22.40;1.00;;;;;;5036317;28;20064;-86
2021/07/18 07:47:10;;;;;;;17.90;16.00;;;22.40;1.00;;;;;;5037128;28;20060;-86
2021/07/18 07:49:36;;;;;;;18.45;15.98;;;22.80;1.00;;;;;;5036209;28;20036;-87
2021/07/18 07:52:02;;;;;;;25.63;17.08;;;22.90;1.00;;;;;;5033801;28;20375;-86
2021/07/18 07:54:28;;;;;;;19.75;15.73;;;23.30;1.00;;;;;;5034226;28;20036;-87
2021/07/18 07:56:53;;;;;;;18.90;17.00;;;23.00;1.00;;;;;;5035179;28;20478;-86
2021/07/18 07:59:19;;;;;;;16.48;14.85;;;23.00;1.00;;;;;;5035098;28;20084;-87
2021/07/18 08:01:45;;;;;;;17.92;15.68;;;23.20;1.00;;;;;;5035083;28;20474;-86
2021/07/18 08:04:10;;;;;;;17.80;15.93;;;23.40;1.00;;;;;;5035234;28;20082;-87
2021/07/18 08:06:36;;;;;;;18.33;15.43;;;23.10;1.00;;;;;;5031419;28;20568;-86
2021/07/18 08:09:02;;;;;;;17.63;14.95;;;23.40;1.00;;;;;;5031579;28;20037;-87
2021/07/18 08:11:28;;;;;;;17.85;15.65;;;23.80;1.00;;;;;;5037997;28;20018;-87
2021/07/18 08:13:53;;;;;;;19.77;15.77;;;23.50;1.00;;;;;;5035515;28;20079;-87
2021/07/18 08:16:19;;;;;;;19.02;15.23;;;23.60;1.00;;;;;;5035900;28;20116;-87
2021/07/18 08:18:45;;;;;;;17.00;15.15;;;23.60;1.00;;;;;;5035160;28;20025;-87
2021/07/18 08:21:10;;;;;;;18.45;16.33;;;23.70;1.00;;;;;;5030449;28;20033;-87
2021/07/18 08:23:36;;;;;;;19.85;16.50;;;23.60;1.00;;;;;;5033797;28;20478;-87
2021/07/18 08:26:02;;;;;;;17.55;15.18;;;23.50;1.00;;;;;;5040787;28;20117;-86
2021/07/18 08:28:27;;;;;;;19.05;15.07;;;23.50;1.00;;;;;;5040790;28;20152;-87
2021/07/18 08:30:53;;;;;;;16.92;15.23;;;24.00;1.00;;;;;;5035705;28;20048;-87
2021/07/18 08:33:19;;;;;;;18.23;14.93;;;24.00;1.00;;;;;;5032077;28;20030;-87
2021/07/18 08:35:44;;;;;;;17.35;14.65;;;24.70;1.00;;;;;;5036461;28;20025;-87
2021/07/18 08:38:10;;;;;;;19.15;14.57;;;24.40;1.00;;;;;;5028934;28;20030;-87
2021/07/18 08:40:37;;;;;;;16.83;15.10;;;24.50;1.00;;;;;;5035628;28;20429;-87
2021/07/18 08:43:04;;;;;;;18.25;14.77;;;24.50;1.00;;;;;;5035325;28;20026;-87
2021/07/18 08:45:30;;;;;;;17.15;14.63;;;24.70;1.00;;;;;;5033671;28;20056;-87
2021/07/18 08:47:56;;;;;;;16.85;15.05;;;25.10;1.00;;;;;;5033117;28;20104;-87
2021/07/18 08:50:22;;;;;;;16.48;14.73;;;25.00;1.00;;;;;;5037077;28;20582;-87
2021/07/18 08:52:55;;;;;;;16.23;14.50;;;25.10;1.00;;;;;;5030763;28;20034;-87
2021/07/18 08:55:22;;;;;;;16.10;14.35;;;25.30;1.00;;;;;;5034868;28;20030;-87
2021/07/18 08:57:49;;;;;;;15.57;14.05;;;26.00;1.00;;;;;;5034374;28;20049;-87
2021/07/18 09:00:15;;;;;;;15.52;13.93;;;25.70;1.00;;;;;;5042072;28;20038;-87
2021/07/18 09:02:42;;;;;;;16.45;14.75;;;25.30;1.00;;;;;;5037682;28;20021;-87
2021/07/18 09:05:09;;;;;;;17.20;15.50;;;25.10;1.00;;;;;;5033947;28;20080;-87
2021/07/18 09:07:48;;;;;;;16.73;14.85;;;24.90;1.00;;;;;;5037569;28;20021;-86
2021/07/18 09:10:18;;;;;;;18.23;15.60;;;24.80;1.00;;;;;;5042170;28;20022;-87
2021/07/18 09:13:05;;;;;;;16.55;14.85;;;24.70;1.00;;;;;;5035219;28;20046;-87
2021/07/18 09:15:43;;;;;;;18.17;15.20;;;24.40;1.00;;;;;;5027804;28;20025;-87
2021/07/18 09:18:10;;;;;;;16.80;14.43;;;24.50;1.00;;;;;;5029989;28;20402;-88
2021/07/18 09:20:41;;;;;;;17.25;15.15;;;24.80;1.00;;;;;;5036625;28;20030;-88
2021/07/18 09:23:09;;;;;;;16.40;14.00;;;25.10;1.00;;;;;;5032384;28;20047;-87
2021/07/18 09:25:35;;;;;;;18.38;15.13;;;25.40;1.00;;;;;;5035194;28;20037;-87
2021/07/18 09:28:17;;;;;;;18.98;15.57;;;25.40;1.00;;;;;;5034071;28;20036;-87
2021/07/18 09:30:44;;;;;;;15.82;14.32;;;25.80;1.00;;;;;;5034098;28;20524;-88
2021/07/18 09:33:29;;;;;;;16.67;14.50;;;26.10;1.00;;;;;;5020800;28;20041;-87
2021/07/18 09:36:12;;;;;;;15.90;14.23;;;26.20;99.90;;;;;;5032461;28;20040;-87
2021/07/18 09:38:38;;;;;;;15.77;14.18;;;26.20;99.90;;;;;;5035933;28;20534;-87
2021/07/18 09:41:04;;;;;;;15.88;14.18;;;26.00;99.90;;;;;;5034221;28;20044;-88
2021/07/18 09:43:29;;;;;;;18.33;14.98;;;26.10;99.90;;;;;;5034655;28;20025;-87
2021/07/18 09:46:00;;;;;;;16.50;14.10;;;26.20;99.90;;;;;;5034538;28;20433;-87
2021/07/18 09:48:44;;;;;;;16.05;14.40;;;26.10;99.90;;;;;;5029779;28;20056;-86
2021/07/18 09:51:12;;;;;;;16.23;14.63;;;26.10;99.90;;;;;;5030375;28;20478;-88
2021/07/18 09:53:41;;;;;;;16.98;14.70;;;26.30;99.90;;;;;;5035677;28;20029;-87
2021/07/18 09:56:09;;;;;;;16.88;14.43;;;26.50;99.90;;;;;;5031249;28;20029;-88
2021/07/18 09:58:37;;;;;;;16.67;14.95;;;26.60;99.90;;;;;;5033442;28;20036;-87
2021/07/18 10:01:06;;;;;;;15.43;13.93;;;26.50;99.90;;;;;;5034122;28;20032;-87
2021/07/18 10:03:32;;;;;;;16.98;14.10;;;26.50;99.90;;;;;;5032534;28;20083;-88
2021/07/18 10:06:11;;;;;;;15.60;13.95;;;26.80;99.90;;;;;;5031825;28;20033;-87
2021/07/18 10:08:42;;;;;;;16.13;14.50;;;26.70;99.90;;;;;;5036644;28;20025;-87
2021/07/18 10:11:09;;;;;;;15.02;13.52;;;26.50;99.90;;;;;;5033630;28;20029;-88
2021/07/18 10:13:37;;;;;;;14.98;13.38;;;26.50;99.90;;;;;;5034546;28;20018;-88
2021/07/18 10:16:04;;;;;;;14.40;13.00;;;26.50;99.90;;;;;;5034256;28;20028;-88
2021/07/18 10:18:30;;;;;;;15.15;13.65;;;26.50;99.90;;;;;;5032228;28;20111;-87
2021/07/18 10:20:58;;;;;;;17.75;13.45;;;26.30;99.90;;;;;;5031878;28;20075;-88
2021/07/18 10:23:25;;;;;;;14.07;12.77;;;26.50;99.90;;;;;;5034256;28;20022;-87
2021/07/18 10:25:52;;;;;;;14.32;13.02;;;27.00;99.90;;;;;;5033518;28;20052;-88
2021/07/18 10:28:23;;;;;;;15.07;13.18;;;27.10;99.90;;;;;;5031143;28;20041;-87
2021/07/18 10:30:50;;;;;;;15.18;13.55;;;27.00;99.90;;;;;;5031075;28;20068;-87
2021/07/18 10:33:20;;;;;;;15.15;13.65;;;27.10;99.90;;;;;;5031116;28;20481;-88
2021/07/18 10:35:48;;;;;;;14.68;13.18;;;27.00;99.90;;;;;;5031269;28;20026;-88
2021/07/18 10:38:15;;;;;;;14.10;12.70;;;27.30;99.90;;;;;;5030875;28;20034;-88
2021/07/18 10:40:55;;;;;;;15.15;13.65;;;27.60;99.90;;;;;;5031798;28;20021;-87
2021/07/18 10:43:36;;;;;;;15.90;12.40;;;27.80;99.90;;;;;;5035301;28;20109;-88
2021/07/18 10:46:03;;;;;;;14.38;12.88;;;28.00;99.90;;;;;;5034895;28;20382;-88
2021/07/18 10:48:52;;;;;;;16.17;13.98;;;27.80;99.90;;;;;;5035017;28;20033;-88
2021/07/18 10:51:34;;;;;;;14.48;12.90;;;28.20;99.90;;;;;;5019936;28;20053;-88
2021/07/18 10:54:17;;;;;;;15.70;13.13;;;28.70;99.90;;;;;;5034578;28;20116;-88
2021/07/18 10:56:51;;;;;;;15.07;13.55;;;29.00;99.90;;;;;;5031015;28;20033;-90
2021/07/18 10:59:37;;;;;;;14.93;13.30;;;29.10;99.90;;;;;;5019604;28;20034;-91
2021/07/18 11:02:13;;;;;;;16.35;14.65;;;29.20;99.90;;;;;;5034319;28;20447;-89
2021/07/18 11:04:46;;;;;;;14.25;12.85;;;28.70;99.90;;;;;;5033767;28;20094;-90
2021/07/18 11:07:33;;;;;;;14.38;12.98;;;28.80;99.90;;;;;;5034849;28;20026;-89
2021/07/18 11:10:08;;;;;;;15.85;13.32;;;28.90;99.90;;;;;;5032420;28;20045;-89
2021/07/18 11:12:35;;;;;;;14.93;12.38;;;29.00;99.90;;;;;;5034683;28;21498;-89
2021/07/18 11:15:21;;;;;;;15.65;13.55;;;28.70;99.90;;;;;;5034310;28;20405;-90
2021/07/18 11:18:09;;;;;;;14.57;13.18;;;28.80;99.90;;;;;;5030862;28;20068;-89
2021/07/18 11:20:55;;;;;;;13.73;12.27;;;29.20;99.90;;;;;;5034525;28;20099;-89
2021/07/18 11:23:30;;;;;;;14.57;12.60;;;29.30;99.90;;;;;;5034120;28;20041;-89
2021/07/18 11:26:06;;;;;;;13.65;12.30;;;29.10;99.90;;;;;;5034539;28;20041;-89
2021/07/18 11:28:44;;;;;;;13.75;12.27;;;28.90;99.90;;;;;;5033963;28;20022;-88
2021/07/18 11:31:10;;;;;;;13.20;11.98;;;29.00;99.90;;;;;;5033633;28;20095;-89
2021/07/18 11:33:49;;;;;;;15.50;12.82;;;29.30;99.90;;;;;;5034386;28;20452;-89
2021/07/18 11:36:19;;;;;;;13.70;12.40;;;29.70;99.90;;;;;;5018512;28;20046;-88
2021/07/18 11:38:45;;;;;;;14.07;12.68;;;29.70;99.90;;;;;;5034140;28;20083;-89
2021/07/18 11:41:25;;;;;;;14.13;12.38;;;29.40;99.90;;;;;;5034051;28;20033;-88
2021/07/18 11:43:53;;;;;;;14.43;12.93;;;29.10;99.90;;;;;;5034082;28;20029;-88
2021/07/18 11:46:21;;;;;;;13.43;11.93;;;29.20;99.90;;;;;;5034019;28;20045;-88
2021/07/18 11:48:49;;;;;;;13.57;12.27;;;30.00;99.90;;;;;;5033555;28;20013;-88
2021/07/18 11:51:20;;;;;;;13.75;12.23;;;30.20;99.90;;;;;;5032796;28;20025;-87
2021/07/18 11:53:50;;;;;;;13.40;11.80;;;29.70;99.90;;;;;;5033509;28;20017;-88
2021/07/18 11:56:22;;;;;;;13.23;11.90;;;29.70;99.90;;;;;;5033015;28;20406;-89
2021/07/18 11:58:48;;;;;;;13.57;11.00;;;29.70;99.90;;;;;;5033486;28;20030;-89
2021/07/18 12:01:23;;;;;;;11.15;10.15;;;33.30;99.90;;;;;;5033400;28;20048;-89
2021/07/18 12:03:50;;;;;;;12.23;10.95;;;33.00;99.90;;;;;;5033536;28;20427;-88
2021/07/18 12:06:25;;;;;;;13.13;10.95;;;32.30;99.90;;;;;;5033125;28;20489;-89
2021/07/18 12:08:50;;;;;;;11.63;10.52;;;31.60;99.90;;;;;;5033677;28;20033;-90
2021/07/18 12:11:43;;;;;;;13.27;10.75;;;30.60;99.90;;;;;;5034113;28;20026;-89
2021/07/18 12:14:09;;;;;;;12.27;11.07;;;29.70;99.90;;;;;;5044846;28;20146;-89
2021/07/18 12:16:38;;;;;;;12.02;10.23;;;30.30;99.90;;;;;;5031932;28;20041;-89
2021/07/18 12:19:05;;;;;;;12.55;10.27;;;30.40;99.90;;;;;;5033051;28;20037;-87
2021/07/18 12:21:33;;;;;;;12.98;10.45;;;31.40;99.90;;;;;;5033115;28;20025;-89
2021/07/18 12:24:20;;;;;;;11.32;10.13;;;34.30;99.90;;;;;;5033012;28;20040;-89
2021/07/18 12:26:59;;;;;;;10.77;9.52;;;31.90;99.90;;;;;;5029904;28;20040;-89
2021/07/18 12:29:29;;;;;;;11.15;10.05;;;30.60;99.90;;;;;;5031670;28;20397;-89
2021/07/18 12:31:56;;;;;;;10.40;9.40;;;31.50;99.90;;;;;;5032337;28;20094;-87
2021/07/18 12:34:28;;;;;;;11.52;10.27;;;32.30;99.90;;;;;;5031888;28;20152;-88
2021/07/18 12:37:01;;;;;;;10.60;9.00;;;31.20;99.90;;;;;;5032686;28;20398;-87
2021/07/18 12:39:35;;;;;;;11.65;9.35;;;31.80;99.90;;;;;;5032549;28;20051;-88